Welcome to Crazy Orc, l'antre du jeu de rôles à Lyon. Please login or sign up.

18 Mai 2024 à 09:23:24

Login with username, password and session length

Crazy Orc, l'antre du jeu de rôles à Lyon - Centre de statistiques

Statistiques générales

Total des membres:
798
Total des messages:
98522
Total des sujets:
4327
Total des catégories:
4
Membres en ligne:
55
Connexions simultanées:
808 - 21 Janvier 2020 à 20:55:59
En ligne aujourd'hui:
273
Total des pages vues:
44092008
Moyenne des inscriptions par jour:
0.26
Moyenne des messages par jour:
22.67
Moyenne des sujets par jour:
1.04
Total des sections:
40
Dernier membre:
Helzie
Moyenne d'utilisateurs connectés par jour:
54.84
Statistiques des sexes:
Ne pas afficher: 365
Masculin: 362
Féminin: 71
Pages vues en moyenne par jour:
7018.79

Top 10 des posteurs

ManuDevil
7077
GroumpH
5098
nunch
3857
LeDupontesque
3084
jules
3026
Mandy
2883
Scratchy
2766
MAO
2493
snake
1947
Le0
1878

Top lanceurs de sujets

nunch
600
Morithil
462
ManuDevil
292
GroumpH
246
Scratchy
132
MAO
110
LeDupontesque
106
jules
99
snake
92
CCCP
86

Le plus de temps en ligne

Mandy
133 j 19 h 59 m
GroumpH
112 j 9 h 16 m
CCCP
88 j 22 h 39 m
Nukeflow
73 j 8 h 19 m
ManuDevil
69 j 10 h 42 m
Felipe
61 j 12 h 19 m
dao
56 j 17 h 58 m
nunch
49 j 1 h 47 m
Patate
43 j 9 h 9 m
Rh
42 j 23 h 32 m

Les utilisateurs les plus aimés

ManuDevil
83
Arkana31
76
Morithil
25
MJulien
25
Phil
24
Lionhell
24
LeDupontesque
22
Patate
18
DeReel (il)
16
Haley Lektrik
12

Historique du forum (basé sur l'heure interne du forum)

Résumé annuel Nouveaux sujets Nouveaux messages Nouveaux membres Connexions simultanées Pages vues
* 2024 62 431 64 600 4788208
Mai 2024 3 31 3 520 667279
Avril 2024 16 93 16 600 1613449
2024-04-01 0 0 1 134 22446
2024-04-02 0 0 0 128 22041
2024-04-03 0 1 0 110 18239
2024-04-04 0 0 0 104 15553
2024-04-05 0 2 0 124 21575
2024-04-06 0 0 0 299 17672
2024-04-07 0 1 0 120 18915
2024-04-08 0 2 0 74 15674
2024-04-09 0 7 0 99 9323
2024-04-10 0 2 1 135 19562
2024-04-11 0 1 0 214 19788
2024-04-12 0 4 1 233 21288
2024-04-13 0 2 0 281 5327
2024-04-14 0 3 0 98 15884
2024-04-15 0 2 0 101 5973
2024-04-16 0 0 0 165 35811
2024-04-17 1 2 1 187 41234
2024-04-18 1 5 0 422 55482
2024-04-19 1 8 2 465 100118
2024-04-20 0 6 1 461 65181
2024-04-21 3 7 2 32 21077
2024-04-22 0 3 0 27 18212
2024-04-23 0 0 1 310 36970
2024-04-24 1 5 1 371 73563
2024-04-25 0 3 1 544 75063
2024-04-26 1 6 2 508 131927
2024-04-27 0 1 0 526 341688
2024-04-28 0 2 0 600 317111
2024-04-29 8 14 0 31 24563
2024-04-30 0 4 2 104 26189
Mars 2024 14 105 12 553 672303
Février 2024 17 116 25 349 567612
Janvier 2024 12 86 8 301 1267565
* 2023 193 1234 127 260 5271275
Décembre 2023 17 64 5 260 1399734
Novembre 2023 12 123 14 217 909538
Octobre 2023 21 141 12 187 333148
2023-10-01 1 5 0 25 4034
2023-10-02 1 6 1 43 4496
2023-10-03 0 8 1 70 6555
2023-10-04 0 2 0 75 8988
2023-10-05 2 3 1 89 7245
2023-10-06 0 6 3 130 8818
2023-10-07 0 5 1 172 14199
2023-10-08 3 5 0 161 9238
2023-10-09 1 2 1 175 9800
2023-10-10 1 6 0 187 16127
2023-10-11 1 5 1 186 11351
2023-10-12 0 1 0 82 7179
2023-10-13 1 6 1 69 7152
2023-10-14 2 19 0 83 6670
2023-10-15 0 6 0 110 7158
2023-10-16 0 0 0 77 8277
2023-10-17 0 1 0 82 9439
2023-10-18 0 2 0 79 7589
2023-10-19 1 8 0 74 9866
2023-10-20 0 10 1 66 6292
2023-10-21 0 2 0 42 3208
2023-10-22 0 3 0 58 4910
2023-10-23 6 14 0 63 18925
2023-10-24 0 1 0 98 22019
2023-10-25 0 2 0 98 30699
2023-10-26 0 3 0 79 34068
2023-10-27 0 0 0 85 11262
2023-10-28 0 1 0 95 8943
2023-10-29 0 1 0 86 8871
2023-10-30 0 5 1 101 8410
2023-10-31 1 3 0 144 11360
Septembre 2023 19 182 18 138 366302
2023-09-01 1 11 1 56 7532
2023-09-02 2 9 2 77 7065
2023-09-03 0 10 1 83 6303
2023-09-04 0 18 2 82 7311
2023-09-05 0 12 0 82 9863
2023-09-06 1 2 2 86 7526
2023-09-07 0 1 0 86 6757
2023-09-08 0 2 0 100 8489
2023-09-09 0 2 0 89 12929
2023-09-10 1 7 1 83 15504
2023-09-11 0 8 1 80 10732
2023-09-12 0 3 0 70 7406
2023-09-13 0 1 1 63 5178
2023-09-14 0 4 0 94 47309
2023-09-15 0 1 0 99 58372
2023-09-16 1 5 0 95 8951
2023-09-17 2 8 0 114 10712
2023-09-18 1 12 1 118 11006
2023-09-19 0 1 0 130 9781
2023-09-20 1 4 1 116 9906
2023-09-21 0 5 0 105 9189
2023-09-22 1 3 1 118 12237
2023-09-23 0 4 0 113 12713
2023-09-24 6 11 0 89 4373
2023-09-25 1 12 0 83 22273
2023-09-26 0 9 0 87 8790
2023-09-27 0 6 1 97 8481
2023-09-28 1 2 1 138 7048
2023-09-29 0 6 0 21 5573
2023-09-30 0 3 2 23 6993
Août 2023 8 42 7 130 236673
Juillet 2023 6 39 4 140 269774
Juin 2023 23 109 10 159 303581
Mai 2023 23 124 16 182 262587
2023-05-01 1 5 2 39 6613
2023-05-02 0 1 0 22 4380
2023-05-03 0 3 0 81 6320
2023-05-04 0 8 1 122 10540
2023-05-05 0 2 0 94 10342
2023-05-06 1 10 2 117 17372
2023-05-07 1 3 1 105 8489
2023-05-08 0 1 0 123 10944
2023-05-09 0 5 0 106 8875
2023-05-10 0 6 1 107 8747
2023-05-11 1 4 0 133 11786
2023-05-12 5 10 1 154 11994
2023-05-13 2 11 1 164 13595
2023-05-14 0 1 1 182 15091
2023-05-15 3 5 2 163 5971
2023-05-16 0 0 0 142 7642
2023-05-17 0 0 0 60 8190
2023-05-18 0 2 0 95 8180
2023-05-19 0 4 0 53 5120
2023-05-20 0 6 1 85 8977
2023-05-21 3 7 0 116 6809
2023-05-22 1 2 0 88 4921
2023-05-23 0 1 0 82 6857
2023-05-24 0 7 1 68 9821
2023-05-25 0 1 0 68 7668
2023-05-26 0 5 1 52 5976
2023-05-27 0 6 0 58 5525
2023-05-28 0 0 0 125 5904
2023-05-29 0 1 0 94 6814
2023-05-30 0 1 0 98 7419
2023-05-31 5 6 1 82 5705
Avril 2023 19 159 11 174 284480
Mars 2023 13 86 6 155 330966
Février 2023 13 62 5 165 274947
Janvier 2023 19 103 19 148 299545
* 2022 183 1154 96 261 3778792
Décembre 2022 9 37 1 161 306381
Novembre 2022 16 103 6 261 350274
Octobre 2022 11 120 17 208 290108
Septembre 2022 17 115 6 258 357415
Août 2022 15 108 9 147 318817
Juillet 2022 13 69 4 208 308045
Juin 2022 14 76 4 62 333112
Mai 2022 16 118 8 91 339244
Avril 2022 18 133 12 61 254691
2022-04-01 0 6 0 49 15444
2022-04-02 0 2 1 49 8967
2022-04-03 4 5 0 38 8148
2022-04-04 1 9 1 43 10158
2022-04-05 0 3 1 41 13979
2022-04-06 0 8 0 36 9247
2022-04-07 1 5 0 43 12333
2022-04-08 0 4 0 43 10696
2022-04-09 1 5 2 41 14859
2022-04-10 1 7 3 41 17217
2022-04-11 2 5 0 46 14030
2022-04-12 0 1 0 34 9483
2022-04-13 2 4 0 35 6925
2022-04-14 0 7 0 48 6203
2022-04-15 0 7 0 49 6464
2022-04-16 0 5 0 35 4327
2022-04-17 0 0 0 36 4954
2022-04-18 0 1 0 40 4048
2022-04-19 0 9 0 44 5344
2022-04-20 0 0 0 48 4153
2022-04-21 0 3 0 55 8132
2022-04-22 2 7 1 52 9959
2022-04-23 0 3 0 49 7655
2022-04-24 1 1 1 61 6931
2022-04-25 2 6 0 44 7260
2022-04-26 0 2 0 44 5849
2022-04-27 0 2 0 55 5585
2022-04-28 0 5 1 47 6009
2022-04-29 1 9 0 52 5398
2022-04-30 0 2 1 43 4934
Mars 2022 15 123 8 65 281935
Février 2022 17 84 9 58 314588
Janvier 2022 22 68 12 70 324182
* 2021 129 756 53 338 4376522
Décembre 2021 8 37 0 129 661064
Novembre 2021 13 99 4 153 262314
Octobre 2021 20 208 15 159 298103
Septembre 2021 24 171 10 280 285455
Août 2021 11 33 7 73 231609
Juillet 2021 6 8 2 81 305173
Juin 2021 17 31 2 135 311168
Mai 2021 3 31 4 268 597777
Avril 2021 10 51 6 287 308355
Mars 2021 7 24 1 308 444900
Février 2021 5 29 2 338 223056
Janvier 2021 5 34 0 322 447548
* 2020 206 1716 105 808 4713463
Décembre 2020 6 38 2 320 310487
Novembre 2020 12 97 3 352 464426
Octobre 2020 21 169 7 346 497422
Septembre 2020 30 356 15 133 325183
Août 2020 16 147 7 163 471897
Juillet 2020 16 77 2 100 345760
Juin 2020 17 60 5 127 452817
2020-06-01 0 1 0 97 7843
2020-06-02 7 8 0 99 6624
2020-06-03 0 0 0 116 9483
2020-06-04 0 0 0 127 10949
2020-06-05 0 0 0 54 8472
2020-06-06 0 0 0 60 11941
2020-06-07 0 3 0 60 62107
2020-06-08 0 1 1 59 116791
2020-06-09 0 1 0 67 15021
2020-06-10 2 6 0 51 11623
2020-06-11 0 0 0 50 8819
2020-06-12 0 0 0 54 9812
2020-06-13 0 0 1 57 9517
2020-06-14 0 1 0 54 10890
2020-06-15 2 5 0 50 11230
2020-06-16 0 3 0 66 11587
2020-06-17 0 0 1 53 7877
2020-06-18 0 0 0 53 7889
2020-06-19 0 0 0 47 8061
2020-06-20 0 1 0 49 10663
2020-06-21 0 0 0 49 8505
2020-06-22 0 2 0 51 8058
2020-06-23 0 1 0 50 9272
2020-06-24 1 7 1 59 9508
2020-06-25 0 4 0 53 9909
2020-06-26 0 1 0 53 10161
2020-06-27 0 0 1 58 11373
2020-06-28 0 0 0 63 8637
2020-06-29 5 12 0 67 8575
2020-06-30 0 3 0 56 11620
Mai 2020 7 22 3 295 321652
Avril 2020 10 47 1 189 300030
Mars 2020 24 253 3 199 467854
Février 2020 18 171 9 323 281798
Janvier 2020 29 279 48 808 474137
* 2019 246 3411 313 446 3308531
Décembre 2019 18 159 26 446 351248
Novembre 2019 16 245 33 325 524135
Octobre 2019 24 272 59 121 189762
Septembre 2019 25 386 54 141 376708
Août 2019 22 257 31 122 225760
Juillet 2019 24 281 62 149 190301
Juin 2019 11 171 3 112 246519
Mai 2019 23 311 10 167 218891
Avril 2019 21 294 9 174 311459
2019-04-01 1 11 0 174 7945
2019-04-02 3 24 0 122 7494
2019-04-03 1 14 0 142 9858
2019-04-04 0 8 0 139 10089
2019-04-05 0 2 0 133 12161
2019-04-06 1 12 1 133 7608
2019-04-07 0 6 0 120 7430
2019-04-08 1 14 1 135 8563
2019-04-09 0 13 0 137 16179
2019-04-10 2 17 0 144 19838
2019-04-11 1 14 1 138 21613
2019-04-12 0 14 0 119 19438
2019-04-13 1 11 3 51 7170
2019-04-14 0 4 0 64 8623
2019-04-15 0 0 0 61 10243
2019-04-16 0 1 0 55 8411
2019-04-17 0 2 0 72 6278
2019-04-18 1 9 0 62 9286
2019-04-19 2 8 0 70 7179
2019-04-20 0 5 0 129 4258
2019-04-21 0 11 1 152 3979
2019-04-22 2 7 0 170 5151
2019-04-23 0 9 0 59 8482
2019-04-24 0 17 0 78 9241
2019-04-25 1 13 2 57 13826
2019-04-26 0 6 0 58 15753
2019-04-27 0 2 0 47 12881
2019-04-28 3 17 0 58 10108
2019-04-29 1 20 0 57 11176
2019-04-30 0 3 0 58 11198
Mars 2019 22 372 16 142 344146
Février 2019 18 288 4 110 142132
Janvier 2019 22 375 6 113 187470
* 2018 338 6176 81 641 2624946
Décembre 2018 43 306 8 253 421582
Novembre 2018 26 467 9 641 383363
Octobre 2018 34 527 6 321 248725
Septembre 2018 34 641 10 127 216306
Août 2018 32 583 16 101 188648
Juillet 2018 21 386 3 104 182475
Juin 2018 31 442 3 110 213303
Mai 2018 21 422 4 107 174393
Avril 2018 25 564 5 104 159849
Mars 2018 20 634 4 96 152933
Février 2018 25 631 7 93 121912
Janvier 2018 26 573 6 94 161457
2018-01-01 1 13 0 81 3873
2018-01-02 0 35 0 86 4281
2018-01-03 0 16 0 84 4474
2018-01-04 0 12 0 88 3657
2018-01-05 0 25 0 83 5021
2018-01-06 1 14 1 84 5114
2018-01-07 3 35 0 78 5039
2018-01-08 0 12 0 91 4838
2018-01-09 2 43 1 88 5141
2018-01-10 0 18 0 87 5299
2018-01-11 0 6 0 74 2983
2018-01-12 1 12 1 15 1584
2018-01-13 4 36 0 18 1661
2018-01-14 2 33 0 27 2978
2018-01-15 0 10 0 22 2126
2018-01-16 0 19 0 18 1286
2018-01-17 0 6 0 16 1525
2018-01-18 0 13 1 77 2416
2018-01-19 0 24 0 88 4882
2018-01-20 1 10 0 83 4920
2018-01-21 0 14 0 86 5414
2018-01-22 0 15 0 88 5074
2018-01-23 0 21 0 91 4662
2018-01-24 1 8 0 17 13946
2018-01-25 0 11 0 80 24972
2018-01-26 0 13 0 91 3885
2018-01-27 2 12 2 85 6401
2018-01-28 6 32 0 92 7019
2018-01-29 1 12 0 86 5701
2018-01-30 0 20 0 94 5869
2018-01-31 1 23 0 88 5416
* 2017 346 6100 56 180 1675168
Décembre 2017 37 499 6 91 136063
Novembre 2017 37 675 6 93 169670
Octobre 2017 15 426 2 93 151449
Septembre 2017 28 548 5 94 135543
Août 2017 29 384 6 99 148097
Juillet 2017 25 490 5 87 176472
Juin 2017 33 603 4 89 156248
2017-06-01 0 8 0 75 4239
2017-06-02 1 17 1 65 4409
2017-06-03 0 12 0 72 4164
2017-06-04 0 3 0 70 3563
2017-06-05 2 46 2 75 5265
2017-06-06 1 33 0 68 4164
2017-06-07 0 20 0 89 5315
2017-06-08 0 14 0 87 7512
2017-06-09 0 18 0 88 7578
2017-06-10 1 2 1 80 6209
2017-06-11 1 10 0 78 4584
2017-06-12 1 25 0 77 6725
2017-06-13 1 13 0 89 5967
2017-06-14 0 8 0 80 4236
2017-06-15 0 8 0 77 5192
2017-06-16 0 23 0 66 4501
2017-06-17 2 19 0 66 5211
2017-06-18 1 40 0 68 5927
2017-06-19 3 39 0 66 5852
2017-06-20 0 21 0 67 5460
2017-06-21 0 3 0 71 7510
2017-06-22 1 28 0 65 5213
2017-06-23 8 39 0 74 5330
2017-06-24 2 24 0 66 4707
2017-06-25 1 19 0 61 5314
2017-06-26 1 50 0 62 7390
2017-06-27 1 13 0 56 4039
2017-06-28 2 17 0 63 3554
2017-06-29 0 16 0 79 3830
2017-06-30 3 15 0 64 3288
Mai 2017 26 470 2 99 181189
Avril 2017 31 490 5 180 139896
Mars 2017 27 432 3 119 90981
Février 2017 31 587 7 87 74924
Janvier 2017 27 496 5 80 114636
* 2016 389 7721 79 245 2075605
Décembre 2016 34 533 2 170 118206
2016-12-01 0 1 0 74 3445
2016-12-02 0 8 0 55 3761
2016-12-03 0 7 0 58 2184
2016-12-04 9 30 0 53 2958
2016-12-05 0 35 0 65 4219
2016-12-06 2 23 0 64 3665
2016-12-07 1 23 0 60 4594
2016-12-08 2 17 0 125 6276
2016-12-09 1 21 0 76 3458
2016-12-10 2 15 2 61 3661
2016-12-11 1 37 0 68 3369
2016-12-12 3 11 0 63 2902
2016-12-13 0 10 0 59 3821
2016-12-14 1 18 0 74 4666
2016-12-15 0 18 0 72 3378
2016-12-16 1 19 0 35 2487
2016-12-17 0 8 0 73 2573
2016-12-18 0 11 0 81 15525
2016-12-19 1 15 0 61 3437
2016-12-20 0 9 0 56 3667
2016-12-21 0 15 0 54 2974
2016-12-22 0 25 0 56 2993
2016-12-23 0 13 0 56 3867
2016-12-24 0 10 0 55 2712
2016-12-25 1 11 0 170 3278
2016-12-26 3 10 0 72 3609
2016-12-27 3 23 0 59 2265
2016-12-28 1 21 0 51 3618
2016-12-29 0 34 0 55 2903
2016-12-30 2 13 0 58 3351
2016-12-31 0 22 0 54 2590
Novembre 2016 34 586 6 245 122991
Octobre 2016 43 726 7 191 160217
Septembre 2016 26 657 9 85 157449
Août 2016 31 721 9 114 169873
Juillet 2016 19 513 3 58 166690
Juin 2016 30 565 5 53 211715
2016-06-01 0 23 0 50 5705
2016-06-02 0 11 0 43 5378
2016-06-03 2 19 1 44 5189
2016-06-04 3 11 1 41 4784
2016-06-05 0 5 0 43 4968
2016-06-06 0 12 0 42 4648
2016-06-07 1 23 0 38 4900
2016-06-08 3 37 0 44 5735
2016-06-09 0 14 0 45 5120
2016-06-10 1 34 0 44 6103
2016-06-11 1 16 0 41 10876
2016-06-12 2 17 1 41 13531
2016-06-13 1 35 0 53 6090
2016-06-14 3 21 1 41 5179
2016-06-15 0 17 0 51 5317
2016-06-16 1 28 1 42 5293
2016-06-17 1 21 0 44 5043
2016-06-18 1 23 0 43 5316
2016-06-19 3 20 0 42 5955
2016-06-20 2 35 0 42 6606
2016-06-21 1 25 0 44 7531
2016-06-22 0 23 0 38 6542
2016-06-23 0 25 0 42 7081
2016-06-24 0 11 0 43 8292
2016-06-25 0 10 0 44 10674
2016-06-26 0 7 0 44 4154
2016-06-27 2 5 0 41 6089
2016-06-28 1 12 0 38 13559
2016-06-29 1 15 0 43 13424
2016-06-30 0 10 0 53 12633
Mai 2016 40 1116 8 94 166514
Avril 2016 27 529 7 65 155208
Mars 2016 35 513 11 88 224056
Février 2016 35 640 4 96 192454
Janvier 2016 35 622 8 95 230232
2016-01-01 1 38 0 74 6938
2016-01-02 5 14 0 62 4266
2016-01-03 1 10 0 73 4160
2016-01-04 1 17 1 74 5076
2016-01-05 2 22 0 81 6676
2016-01-06 0 16 1 73 2487
2016-01-07 2 18 1 73 16041
2016-01-08 1 18 1 68 8960
2016-01-09 0 15 0 83 5138
2016-01-10 2 38 0 80 5949
2016-01-11 2 44 0 77 6900
2016-01-12 0 18 0 77 7023
2016-01-13 1 29 1 83 8300
2016-01-14 1 17 0 94 10452
2016-01-15 1 20 0 90 7501
2016-01-16 0 35 0 95 11508
2016-01-17 0 32 0 85 12436
2016-01-18 1 14 0 81 15167
2016-01-19 1 23 0 83 13475
2016-01-20 1 20 0 79 9097
2016-01-21 0 9 0 75 7399
2016-01-22 1 8 0 71 7610
2016-01-23 0 18 0 73 5798
2016-01-24 1 20 0 66 5545
2016-01-25 4 14 0 74 4580
2016-01-26 1 14 0 75 6897
2016-01-27 1 11 1 80 5561
2016-01-28 1 22 0 83 5191
2016-01-29 0 14 0 73 4905
2016-01-30 1 14 1 81 4215
2016-01-31 2 20 1 64 4981
* 2015 373 6684 79 100 1549803
Décembre 2015 28 499 7 68 140303
Novembre 2015 40 724 5 35 146607
Octobre 2015 32 760 10 84 227528
Septembre 2015 40 948 13 100 169012
Août 2015 36 566 12 61 119954
Juillet 2015 29 462 7 31 89666
Juin 2015 24 453 5 30 112317
Mai 2015 30 390 2 24 73874
Avril 2015 29 408 4 25 95371
2015-04-01 1 15 0 20 2794
2015-04-02 1 21 0 16 2834
2015-04-03 0 14 0 17 2508
2015-04-04 0 8 0 15 1598
2015-04-05 0 4 0 16 4225
2015-04-06 1 5 0 22 4037
2015-04-07 1 8 0 17 3300
2015-04-08 0 16 0 22 2846
2015-04-09 0 3 0 18 3300
2015-04-10 2 18 0 22 3304
2015-04-11 1 19 1 18 3102
2015-04-12 0 7 1 12 2663
2015-04-13 1 10 0 14 3621
2015-04-14 0 16 0 25 2946
2015-04-15 0 5 0 17 2800
2015-04-16 0 3 0 19 3815
2015-04-17 1 9 0 16 3313
2015-04-18 0 11 0 16 3035
2015-04-19 0 5 0 16 4184
2015-04-20 1 8 0 16 2818
2015-04-21 0 1 0 18 2616
2015-04-22 1 13 0 18 2909
2015-04-23 0 19 0 24 4246
2015-04-24 0 18 0 18 3149
2015-04-25 8 32 1 17 3211
2015-04-26 4 35 0 20 3250
2015-04-27 3 35 0 18 3609
2015-04-28 0 6 0 13 3318
2015-04-29 2 23 1 16 3839
2015-04-30 1 21 0 16 2181
Mars 2015 38 550 7 37 130116
Février 2015 15 434 2 24 123854
Janvier 2015 32 490 5 44 121201
* 2014 428 7364 58 58 2478164
Décembre 2014 24 360 4 33 191610
Novembre 2014 37 572 7 46 525858
Octobre 2014 45 928 8 58 364915
Septembre 2014 24 549 8 32 162413
Août 2014 17 251 4 27 191624
Juillet 2014 25 369 3 30 236312
Juin 2014 29 602 3 32 220918
Mai 2014 34 842 6 29 157174
Avril 2014 45 662 1 25 104486
Mars 2014 32 595 4 26 120439
Février 2014 24 660 5 28 102996
Janvier 2014 92 974 5 33 99419
* 2013 408 8887 76 89 1597727
Décembre 2013 36 785 2 79 132305
Novembre 2013 36 751 8 29 141119
Octobre 2013 37 683 10 26 116570
Septembre 2013 33 723 15 29 160779
Août 2013 20 356 4 30 113960
Juillet 2013 21 331 2 24 120164
Juin 2013 40 731 5 34 119512
Mai 2013 34 881 3 47 157484
Avril 2013 38 799 8 33 124279
Mars 2013 40 1111 9 62 147762
Février 2013 32 838 5 79 125299
Janvier 2013 41 898 5 89 138494
* 2012 446 10690 67 157 1274957
Décembre 2012 57 1411 4 45 150137
Novembre 2012 46 1137 8 25 112399
Octobre 2012 45 1068 7 25 80970
Septembre 2012 37 876 11 38 107023
Août 2012 30 595 5 41 95032
Juillet 2012 24 563 2 157 78638
Juin 2012 39 984 10 33 88620
Mai 2012 22 703 5 26 77701
Avril 2012 33 714 4 33 95151
Mars 2012 35 977 5 48 160160
Février 2012 34 704 5 33 117877
Janvier 2012 44 958 1 30 111249
* 2011 822 21877 118 48 1861895
Décembre 2011 68 1315 7 36 141929
Novembre 2011 94 1539 4 36 150015
Octobre 2011 81 1597 13 41 169207
Septembre 2011 96 1991 19 24 158540
Août 2011 68 1372 16 48 135201
Juillet 2011 57 1156 10 30 112626
Juin 2011 40 1214 6 31 149115
Mai 2011 64 1997 8 39 181997
Avril 2011 46 1637 9 38 176986
2011-04-01 3 85 0 24 5196
2011-04-02 2 26 0 25 3181
2011-04-03 1 47 0 22 3986
2011-04-04 5 87 0 23 5162
2011-04-05 3 126 0 26 5929
2011-04-06 2 86 0 30 5882
2011-04-07 2 66 0 28 5722
2011-04-08 1 43 0 24 4364
2011-04-09 0 20 0 30 5658
2011-04-10 2 18 0 23 5927
2011-04-11 1 70 0 29 6508
2011-04-12 2 92 0 16 4305
2011-04-13 0 60 0 19 3888
2011-04-14 3 58 2 36 11355
2011-04-15 1 48 0 26 8294
2011-04-16 0 22 0 24 5495
2011-04-17 0 22 0 27 5056
2011-04-18 1 49 1 38 7751
2011-04-19 0 41 0 32 8124
2011-04-20 0 29 1 28 7842
2011-04-21 2 75 2 29 7444
2011-04-22 4 72 1 33 6852
2011-04-23 2 53 0 26 6996
2011-04-24 3 39 1 32 6830
2011-04-25 1 54 0 27 5518
2011-04-26 2 61 0 30 6064
2011-04-27 1 30 0 22 4274
2011-04-28 0 71 0 28 4955
2011-04-29 0 49 0 28 4772
2011-04-30 2 38 1 24 3656
Mars 2011 54 2388 6 31 211307
Février 2011 59 2656 5 46 128248
2011-02-01 3 136 0 46 5654
2011-02-02 3 121 0 25 5448
2011-02-03 2 68 0 30 4573
2011-02-04 2 95 0 22 4221
2011-02-05 4 54 0 26 3574
2011-02-06 0 36 0 27 3427
2011-02-07 5 100 0 30 4483
2011-02-08 4 139 0 24 4710
2011-02-09 1 103 0 23 5418
2011-02-10 1 100 0 22 4527
2011-02-11 3 116 2 41 4732
2011-02-12 2 58 0 37 3823
2011-02-13 1 74 0 36 4349
2011-02-14 0 118 0 40 4898
2011-02-15 3 100 0 38 4914
2011-02-16 0 74 0 32 4322
2011-02-17 3 82 0 29 4503
2011-02-18 4 181 0 41 5880
2011-02-19 0 34 0 22 3355
2011-02-20 2 50 0 37 3284
2011-02-21 1 151 1 35 5505
2011-02-22 1 148 1 35 6218
2011-02-23 5 132 0 43 5855
2011-02-24 4 167 0 22 5961
2011-02-25 0 48 0 19 3745
2011-02-26 0 17 1 17 2862
2011-02-27 1 19 0 19 2743
2011-02-28 4 135 0 22 5264
Janvier 2011 95 3015 15 44 146724
* 2010 615 23079 70 91 1409620
Décembre 2010 54 2635 5 43 199984
Novembre 2010 59 2475 6 49 127779
Octobre 2010 56 2811 15 58 134942
Septembre 2010 53 1528 8 29 95249
Août 2010 32 1287 6 33 89617
Juillet 2010 34 1637 5 32 97290
Juin 2010 46 2137 3 28 109648
Mai 2010 50 1497 6 28 99050
Avril 2010 45 1888 3 26 102219
Mars 2010 53 1534 2 46 118201
Février 2010 65 1574 4 91 117274
Janvier 2010 68 2076 7 43 118367
* 2009 752 28223 96 159 970278
Décembre 2009 39 2001 5 54 122418
Novembre 2009 59 3138 6 38 117432
Octobre 2009 67 3218 11 18 122232
Septembre 2009 73 2730 14 159 92082
Août 2009 47 1405 8 15 61919
Juillet 2009 68 1737 11 21 67267
Juin 2009 63 2759 4 37 72789
Mai 2009 46 2166 6 16 66386
2009-05-01 1 129 0 10 2835
2009-05-02 1 42 1 14 1469
2009-05-03 0 68 0 13 1801
2009-05-04 3 101 1 16 2844
2009-05-05 2 74 1 13 2433
2009-05-06 4 156 0 15 3705
2009-05-07 1 47 0 12 1946
2009-05-08 1 54 1 9 1538
2009-05-09 2 46 0 10 1306
2009-05-10 2 58 0 12 1788
2009-05-11 0 77 0 13 2263
2009-05-12 1 49 1 11 2134
2009-05-13 0 31 0 11 1993
2009-05-14 0 65 0 12 2003
2009-05-15 0 75 0 11 2324
2009-05-16 2 36 0 8 1545
2009-05-17 1 52 1 13 2284
2009-05-18 0 40 0 11 2729
2009-05-19 1 60 0 11 2402
2009-05-20 0 90 0 10 2220
2009-05-21 5 54 0 10 1843
2009-05-22 0 36 0 10 1520
2009-05-23 0 38 0 8 1804
2009-05-24 5 74 0 10 2169
2009-05-25 6 80 0 13 2515
2009-05-26 1 105 0 13 2637
2009-05-27 4 128 0 14 3088
2009-05-28 0 85 0 9 1806
2009-05-29 0 82 0 11 2137
2009-05-30 0 48 0 8 1394
2009-05-31 3 86 0 13 1911
Avril 2009 101 2850 6 16 73303
Mars 2009 80 3538 7 17 83610
Février 2009 57 1586 6 16 50521
2009-02-01 3 79 0 10 1938
2009-02-02 2 66 0 11 2491
2009-02-03 2 62 1 13 2112
2009-02-04 2 48 0 12 1911
2009-02-05 1 54 0 10 1840
2009-02-06 0 42 1 9 1456
2009-02-07 1 13 0 6 1032
2009-02-08 5 69 1 9 1650
2009-02-09 3 48 0 10 1590
2009-02-10 2 56 0 8 1453
2009-02-11 1 38 1 9 1697
2009-02-12 2 30 0 8 1354
2009-02-13 3 52 1 12 1429
2009-02-14 1 29 0 11 988
2009-02-15 2 41 0 8 1595
2009-02-16 2 62 0 10 2271
2009-02-17 1 44 0 10 1926
2009-02-18 1 62 0 10 2139
2009-02-19 5 89 0 12 2304
2009-02-20 1 66 0 12 2066
2009-02-21 0 41 0 9 1177
2009-02-22 6 58 0 11 1838
2009-02-23 2 67 0 10 1907
2009-02-24 1 64 0 12 2219
2009-02-25 1 85 0 16 2446
2009-02-26 2 76 0 12 2117
2009-02-27 1 82 0 11 2035
2009-02-28 4 63 1 10 1540
Janvier 2009 52 1095 12 10 40319
* 2008 334 4655 56 26 234055
Décembre 2008 36 663 7 12 28104
Novembre 2008 51 1090 9 10 35948
2008-11-01 3 21 0 5 641
2008-11-02 1 11 0 4 608
2008-11-03 3 25 0 6 607
2008-11-04 1 10 0 7 593
2008-11-05 1 39 0 6 862
2008-11-06 1 30 0 7 800
2008-11-07 0 24 1 6 988
2008-11-08 1 21 0 6 723
2008-11-09 4 34 1 9 1318
2008-11-10 0 37 0 6 898
2008-11-11 1 23 0 6 769
2008-11-12 0 32 0 8 965
2008-11-13 1 46 0 7 1206
2008-11-14 7 80 2 10 1771
2008-11-15 2 24 2 8 1573
2008-11-16 5 105 1 9 2149
2008-11-17 2 78 0 8 1696
2008-11-18 3 99 0 9 1993
2008-11-19 0 49 0 7 2844
2008-11-20 1 13 0 9 760
2008-11-21 5 51 0 7 1231
2008-11-22 2 32 0 9 1665
2008-11-23 0 11 0 8 2071
2008-11-24 0 26 0 6 2046
2008-11-25 3 42 0 6 1092
2008-11-26 0 40 0 8 1012
2008-11-27 0 22 0 5 951
2008-11-28 0 22 1 8 705
2008-11-29 2 23 0 5 721
2008-11-30 2 20 1 5 690
Octobre 2008 50 609 5 10 26582
Septembre 2008 40 619 5 10 24365
2008-09-01 0 6 0 7 539
2008-09-02 2 16 0 0 576
2008-09-03 1 13 0 5 857
2008-09-04 1 9 0 6 627
2008-09-05 1 15 0 7 829
2008-09-06 1 7 0 6 671
2008-09-07 1 17 0 4 1181
2008-09-08 5 29 0 6 1459
2008-09-09 0 2 0 5 741
2008-09-10 1 9 0 5 540
2008-09-11 0 7 0 6 574
2008-09-12 2 27 0 7 779
2008-09-13 0 11 0 6 602
2008-09-14 0 5 0 6 478
2008-09-15 6 28 1 6 990
2008-09-16 1 15 0 6 639
2008-09-17 0 26 1 7 1061
2008-09-18 1 14 0 6 720
2008-09-19 1 16 0 6 620
2008-09-20 0 9 0 5 403
2008-09-21 2 17 2 6 630
2008-09-22 0 32 0 7 887
2008-09-23 1 22 0 10 697
2008-09-24 3 54 0 10 1244
2008-09-25 3 27 0 7 873
2008-09-26 1 23 0 6 770
2008-09-27 0 21 0 8 670
2008-09-28 2 35 0 7 911
2008-09-29 2 57 0 6 1560
2008-09-30 2 50 1 9 1237
Août 2008 28 252 6 9 21916
Juillet 2008 20 256 5 7 16733
Juin 2008 17 363 6 26 18903
Mai 2008 17 180 2 10 13320
Avril 2008 16 146 3 8 16063
Mars 2008 18 158 1 9 12835
Février 2008 19 155 2 9 9679
Janvier 2008 22 164 5 7 9607
2008-01-01 0 0 0 3 156
2008-01-02 1 6 0 3 272
2008-01-03 0 4 1 5 375
2008-01-04 0 10 0 5 389
2008-01-05 0 3 1 0 262
2008-01-06 0 3 0 7 269
2008-01-07 1 4 1 0 273
2008-01-08 1 5 0 4 363
2008-01-09 1 6 0 4 353
2008-01-10 2 18 0 4 470
2008-01-11 0 2 0 5 307
2008-01-12 0 0 0 2 173
2008-01-13 0 8 0 3 213
2008-01-14 0 5 0 6 311
2008-01-15 0 4 0 4 276
2008-01-16 0 3 0 4 283
2008-01-17 1 4 0 5 318
2008-01-18 0 7 0 5 340
2008-01-19 1 4 0 5 253
2008-01-20 0 2 1 4 270
2008-01-21 0 4 0 5 319
2008-01-22 2 2 0 0 196
2008-01-23 1 3 0 3 205
2008-01-24 0 6 0 4 222
2008-01-25 0 4 0 4 317
2008-01-26 0 2 0 4 258
2008-01-27 2 4 0 5 300
2008-01-28 4 13 1 5 640
2008-01-29 2 13 0 5 449
2008-01-30 2 9 0 0 384
2008-01-31 1 6 0 4 391
* 2007 276 2246 55 9 102999
Décembre 2007 21 167 5 8 17081
Novembre 2007 20 168 3 6 8467
Octobre 2007 21 147 4 5 8193
Septembre 2007 22 183 4 9 9896
Août 2007 23 226 2 6 9096
Juillet 2007 18 127 1 4 10165
Juin 2007 25 309 2 6 13196
Mai 2007 30 315 8 7 11830
Avril 2007 44 428 13 9 13382
Mars 2007 52 176 13 4 1693